Time;durP1;ratioP1;P1;durP2;ratioP2;P2;SDS_P1;SDS_P2;PMS_P1;PMS_P2;Temp;Humidity;BMP_temperature;BMP_pressure;BME280_temperature;BME280_humidity;BME280_pressure;Samples;Min_cycle;Max_cycle;Signal;HPM_P1;HPM_P2
2023/02/18 00:01:55;;;;;;;16.60;14.80;;;13.20;99.90;;;;;;4995884;28;20465;-67
2023/02/18 00:04:20;;;;;;;18.00;15.10;;;13.30;99.90;;;;;;4994688;28;20280;-68
2023/02/18 00:06:46;;;;;;;16.73;14.13;;;13.30;99.90;;;;;;4997181;28;20177;-67
2023/02/18 00:09:12;;;;;;;17.50;14.00;;;13.30;99.90;;;;;;4996420;28;20182;-67
2023/02/18 00:11:38;;;;;;;15.90;14.33;;;13.40;99.90;;;;;;4977031;28;20463;-67
2023/02/18 00:14:13;;;;;;;17.37;14.57;;;13.40;99.90;;;;;;4997072;28;20214;-67
2023/02/18 00:16:39;;;;;;;16.50;14.33;;;13.40;99.90;;;;;;4996383;28;20556;-67
2023/02/18 00:19:06;;;;;;;20.47;14.17;;;13.30;99.90;;;;;;4996748;28;20918;-67
2023/02/18 00:21:33;;;;;;;16.37;14.57;;;13.40;99.90;;;;;;4979035;28;20450;-67
2023/02/18 00:23:59;;;;;;;16.60;14.87;;;13.40;99.90;;;;;;4996017;28;20441;-67
2023/02/18 00:26:25;;;;;;;16.77;14.70;;;13.40;99.90;;;;;;4995989;28;20923;-67
2023/02/18 00:28:53;;;;;;;15.80;13.97;;;13.30;99.90;;;;;;4996386;28;20194;-67
2023/02/18 00:31:22;;;;;;;16.83;14.33;;;13.30;99.90;;;;;;4995180;28;20437;-67
2023/02/18 00:33:48;;;;;;;17.10;15.40;;;13.30;99.90;;;;;;4996008;28;20414;-68
2023/02/18 00:36:16;;;;;;;15.30;13.43;;;13.30;99.90;;;;;;4996712;28;20471;-67
2023/02/18 00:38:49;;;;;;;15.63;14.00;;;13.30;99.90;;;;;;4996958;28;20836;-68
2023/02/18 00:41:15;;;;;;;16.50;14.80;;;13.20;99.90;;;;;;4996074;28;20449;-67
2023/02/18 00:43:42;;;;;;;17.20;15.17;;;13.30;99.90;;;;;;4978640;28;20447;-68
2023/02/18 00:46:08;;;;;;;15.80;14.20;;;13.30;99.90;;;;;;4995747;28;20824;-68
2023/02/18 00:48:35;;;;;;;16.53;14.83;;;13.20;99.90;;;;;;4995860;28;20431;-68
2023/02/18 00:51:02;;;;;;;15.80;14.20;;;13.30;99.90;;;;;;4996365;28;20420;-67
2023/02/18 00:53:28;;;;;;;15.80;14.17;;;13.30;99.90;;;;;;4978201;28;20818;-68
2023/02/18 00:55:54;;;;;;;15.83;14.20;;;13.30;99.90;;;;;;4996334;28;20492;-68
2023/02/18 00:58:20;;;;;;;15.87;14.07;;;13.30;99.90;;;;;;4995373;28;20456;-67
2023/02/18 01:00:46;;;;;;;15.70;14.10;;;13.30;99.90;;;;;;4995469;28;20608;-67
2023/02/18 01:03:12;;;;;;;14.33;12.90;;;13.30;99.90;;;;;;4994428;28;20507;-67
2023/02/18 01:05:39;;;;;;;15.23;13.63;;;13.20;99.90;;;;;;4994860;28;21004;-67
2023/02/18 01:08:05;;;;;;;17.23;14.77;;;13.20;99.90;;;;;;4995400;28;20511;-67
2023/02/18 01:10:31;;;;;;;16.47;14.67;;;13.20;99.90;;;;;;4993139;28;20441;-67
2023/02/18 01:12:57;;;;;;;14.97;13.37;;;13.30;99.90;;;;;;4974172;28;20481;-67
2023/02/18 01:15:23;;;;;;;17.10;13.33;;;13.20;99.90;;;;;;4991591;28;20511;-68
2023/02/18 01:17:50;;;;;;;14.53;13.03;;;13.20;99.90;;;;;;4995312;28;20565;-67
2023/02/18 01:20:18;;;;;;;18.03;14.60;;;13.20;99.90;;;;;;4995556;28;20414;-67
2023/02/18 01:22:44;;;;;;;14.90;13.37;;;13.30;99.90;;;;;;4977479;28;20497;-68
2023/02/18 01:25:11;;;;;;;14.37;12.87;;;13.30;99.90;;;;;;4995798;28;20855;-69
2023/02/18 01:27:37;;;;;;;17.20;13.00;;;13.20;99.90;;;;;;4995406;28;20264;-69
2023/02/18 01:30:04;;;;;;;14.93;13.43;;;13.30;99.90;;;;;;4995312;28;20469;-70
2023/02/18 01:32:30;;;;;;;14.97;13.30;;;13.20;99.90;;;;;;4993498;28;20435;-69
2023/02/18 01:34:56;;;;;;;15.27;13.20;;;13.20;99.90;;;;;;4995546;28;20911;-69
2023/02/18 01:37:22;;;;;;;15.53;13.90;;;13.30;99.90;;;;;;4995050;28;20182;-69
2023/02/18 01:39:47;;;;;;;15.20;13.70;;;13.30;99.90;;;;;;4994542;28;20269;-69
2023/02/18 01:42:22;;;;;;;16.37;13.07;;;13.30;99.90;;;;;;4995614;28;20230;-69
2023/02/18 01:44:49;;;;;;;16.47;14.67;;;13.20;99.90;;;;;;4995117;28;20655;-69
2023/02/18 01:47:15;;;;;;;14.27;12.77;;;13.30;99.90;;;;;;4995070;28;20410;-70
2023/02/18 01:49:44;;;;;;;16.20;14.30;;;13.30;99.90;;;;;;4994715;28;20752;-69
2023/02/18 01:52:19;;;;;;;14.90;13.40;;;13.30;99.90;;;;;;4977870;28;20418;-68
2023/02/18 01:54:48;;;;;;;15.23;13.73;;;13.30;99.90;;;;;;4994089;28;20432;-69
2023/02/18 01:57:22;;;;;;;15.87;13.23;;;13.20;99.90;;;;;;4995285;28;20562;-69
2023/02/18 01:59:57;;;;;;;15.20;13.60;;;13.20;99.90;;;;;;4995295;28;20411;-68
2023/02/18 02:02:26;;;;;;;15.10;13.57;;;13.10;99.90;;;;;;4992895;28;20461;-69
2023/02/18 02:04:52;;;;;;;17.27;13.47;;;13.10;99.90;;;;;;4977675;28;20443;-69
2023/02/18 02:07:21;;;;;;;14.33;12.93;;;13.10;99.90;;;;;;4994970;28;20428;-68
2023/02/18 02:09:49;;;;;;;16.10;14.17;;;13.10;99.90;;;;;;4977593;28;20459;-68
2023/02/18 02:12:24;;;;;;;17.00;13.53;;;13.10;99.90;;;;;;4982436;28;20498;-68
2023/02/18 02:15:00;;;;;;;14.53;12.93;;;13.10;99.90;;;;;;4974774;28;20441;-69
2023/02/18 02:17:48;;;;;;;15.90;13.80;;;13.10;99.90;;;;;;4974012;28;20925;-69
2023/02/18 02:20:32;;;;;;;15.13;12.60;;;13.10;99.90;;;;;;4958096;28;20434;-68
2023/02/18 02:23:31;;;;;;;13.90;12.43;;;13.10;99.90;;;;;;4975296;28;20477;-67
2023/02/18 02:26:06;;;;;;;14.50;13.00;;;13.10;99.90;;;;;;4975347;28;20404;-68
2023/02/18 02:29:03;;;;;;;13.40;12.00;;;13.10;99.90;;;;;;4974537;28;20420;-69
2023/02/18 02:31:38;;;;;;;13.70;12.40;;;13.00;99.90;;;;;;4973806;28;20495;-69
2023/02/18 02:34:36;;;;;;;13.30;11.90;;;13.00;99.90;;;;;;4975148;28;20773;-69
2023/02/18 02:37:08;;;;;;;12.77;11.43;;;13.00;99.90;;;;;;4975104;28;20419;-68
2023/02/18 02:39:47;;;;;;;14.13;11.67;;;13.00;99.90;;;;;;4974366;28;20415;-69
2023/02/18 02:42:52;;;;;;;15.23;13.53;;;13.00;99.90;;;;;;4974311;28;20463;-69
2023/02/18 02:45:43;;;;;;;12.63;11.33;;;13.00;99.90;;;;;;4969595;28;20530;-68
2023/02/18 02:48:39;;;;;;;12.20;11.00;;;13.00;99.90;;;;;;4957441;28;20418;-69
2023/02/18 02:51:36;;;;;;;11.43;10.33;;;13.10;99.90;;;;;;4974891;28;20780;-69
2023/02/18 02:54:28;;;;;;;13.37;11.10;;;13.10;99.90;;;;;;4943595;29;20434;-68
2023/02/18 02:57:28;;;;;;;11.47;10.37;;;13.10;99.90;;;;;;4960252;28;20443;-69
2023/02/18 03:00:05;;;;;;;11.07;9.97;;;13.10;99.90;;;;;;4957005;28;20426;-69
2023/02/18 03:02:33;;;;;;;10.97;9.97;;;13.10;99.90;;;;;;4973936;28;20506;-69
2023/02/18 03:05:10;;;;;;;11.40;10.40;;;13.20;99.90;;;;;;4974477;28;20426;-69
2023/02/18 03:08:12;;;;;;;12.53;11.17;;;13.20;99.90;;;;;;4973054;28;20485;-69
2023/02/18 03:10:59;;;;;;;10.83;9.73;;;13.20;99.90;;;;;;4973009;28;20437;-67
2023/02/18 03:13:43;;;;;;;11.40;10.20;;;13.20;99.90;;;;;;4970760;28;20418;-70
2023/02/18 03:16:27;;;;;;;10.17;9.17;;;13.20;99.90;;;;;;4974348;28;20567;-68
2023/02/18 03:19:01;;;;;;;10.30;9.40;;;13.20;99.90;;;;;;4966585;28;20415;-68
2023/02/18 03:21:40;;;;;;;10.67;9.67;;;13.20;99.90;;;;;;4973878;28;20830;-69
2023/02/18 03:24:35;;;;;;;10.30;9.30;;;13.20;99.90;;;;;;4966559;28;20430;-67
2023/02/18 03:27:27;;;;;;;10.27;9.20;;;13.10;99.90;;;;;;4973051;28;20473;-67
2023/02/18 03:30:11;;;;;;;10.30;9.27;;;13.10;99.90;;;;;;4956615;28;20432;-68
2023/02/18 03:32:37;;;;;;;8.93;7.90;;;13.20;99.90;;;;;;4972214;28;20434;-67
2023/02/18 03:35:11;;;;;;;9.40;8.50;;;13.10;99.90;;;;;;4973316;28;20444;-67
2023/02/18 03:37:44;;;;;;;10.23;9.23;;;13.10;99.90;;;;;;4973722;28;20173;-67
2023/02/18 03:40:11;;;;;;;10.63;9.53;;;13.10;99.90;;;;;;4974029;28;20489;-67
2023/02/18 03:42:37;;;;;;;10.80;9.70;;;13.00;99.90;;;;;;4972624;28;20493;-68
2023/02/18 03:45:03;;;;;;;9.90;8.90;;;13.00;99.90;;;;;;4973857;28;20468;-68
2023/02/18 03:47:29;;;;;;;10.40;9.30;;;13.10;99.90;;;;;;4972709;28;20465;-68
2023/02/18 03:49:54;;;;;;;11.20;9.67;;;13.10;99.90;;;;;;4973856;28;20833;-68
2023/02/18 03:52:20;;;;;;;9.40;8.43;;;13.10;99.90;;;;;;4973581;28;20501;-67
2023/02/18 03:54:46;;;;;;;9.47;8.57;;;13.00;99.90;;;;;;4973271;28;20179;-68
2023/02/18 03:57:12;;;;;;;8.50;7.70;;;13.00;99.90;;;;;;4972319;28;20179;-68
2023/02/18 03:59:37;;;;;;;9.63;8.63;;;13.10;99.90;;;;;;4973451;28;20224;-68
2023/02/18 04:02:03;;;;;;;9.03;8.13;;;13.00;99.90;;;;;;4973692;28;20268;-67
2023/02/18 04:04:29;;;;;;;8.90;8.00;;;13.10;99.90;;;;;;4973222;28;20184;-68
2023/02/18 04:06:54;;;;;;;8.87;7.97;;;13.00;99.90;;;;;;4972488;28;20191;-67
2023/02/18 04:09:20;;;;;;;9.70;7.97;;;13.00;99.90;;;;;;4973703;28;20203;-67
2023/02/18 04:11:46;;;;;;;8.30;7.50;;;13.00;99.90;;;;;;4981583;28;20302;-67
2023/02/18 04:14:13;;;;;;;8.87;7.90;;;13.00;99.90;;;;;;4975592;28;20203;-68
2023/02/18 04:16:39;;;;;;;9.97;8.47;;;13.00;99.90;;;;;;4991632;28;20589;-68
2023/02/18 04:19:05;;;;;;;8.73;7.83;;;13.00;99.90;;;;;;4992980;28;20403;-68
2023/02/18 04:21:31;;;;;;;10.93;8.60;;;13.10;99.90;;;;;;4991167;28;20526;-68
2023/02/18 04:23:57;;;;;;;8.53;7.73;;;13.00;99.90;;;;;;4993086;28;20214;-67
2023/02/18 04:26:23;;;;;;;8.07;7.27;;;13.10;99.90;;;;;;4992191;28;20480;-68
2023/02/18 04:28:49;;;;;;;7.67;6.97;;;13.00;99.90;;;;;;4992104;28;20170;-68
2023/02/18 04:31:14;;;;;;;8.00;7.30;;;12.90;99.90;;;;;;4991390;28;20173;-68
2023/02/18 04:33:40;;;;;;;7.47;6.77;;;12.90;99.90;;;;;;4991547;28;20198;-67
2023/02/18 04:36:06;;;;;;;7.30;6.70;;;12.90;99.90;;;;;;4991903;28;20194;-68
2023/02/18 04:38:32;;;;;;;6.73;6.13;;;12.90;99.90;;;;;;4992219;28;20176;-68
2023/02/18 04:40:58;;;;;;;7.43;6.73;;;12.90;99.90;;;;;;4975423;28;20433;-68
2023/02/18 04:43:23;;;;;;;7.80;7.10;;;13.00;99.90;;;;;;4992750;28;20208;-68
2023/02/18 04:45:49;;;;;;;5.97;5.50;;;12.90;99.90;;;;;;4994270;28;21156;-68
2023/02/18 04:48:15;;;;;;;5.80;5.40;;;12.80;99.90;;;;;;4994853;28;20197;-68
2023/02/18 04:50:40;;;;;;;4.70;4.40;;;12.90;99.90;;;;;;4993747;28;20445;-68
2023/02/18 04:53:06;;;;;;;5.23;4.93;;;12.80;99.90;;;;;;4995997;28;20200;-68
2023/02/18 04:55:32;;;;;;;5.57;5.17;;;12.80;99.90;;;;;;4994868;28;20186;-67
2023/02/18 04:57:57;;;;;;;5.70;5.30;;;12.80;99.90;;;;;;4991834;28;20641;-68
2023/02/18 05:00:23;;;;;;;5.30;5.00;;;12.90;99.90;;;;;;4992510;28;20815;-68
2023/02/18 05:02:49;;;;;;;5.33;5.03;;;12.90;99.90;;;;;;4994860;28;20217;-68
2023/02/18 05:05:15;;;;;;;5.17;4.77;;;12.90;99.90;;;;;;4993887;28;20200;-68
2023/02/18 05:07:41;;;;;;;4.73;4.53;;;12.90;99.90;;;;;;5008509;28;20179;-67
2023/02/18 05:10:13;;;;;;;4.87;4.67;;;13.00;99.90;;;;;;5002625;28;20458;-67
2023/02/18 05:12:39;;;;;;;4.50;4.30;;;13.00;99.90;;;;;;4991764;28;20475;-67
2023/02/18 05:15:05;;;;;;;4.40;4.20;;;13.00;99.90;;;;;;4995786;28;20518;-66
2023/02/18 05:17:30;;;;;;;4.37;4.17;;;13.10;99.90;;;;;;4995667;28;20180;-67
2023/02/18 05:19:56;;;;;;;4.00;3.90;;;13.10;99.90;;;;;;4977793;28;20419;-67
2023/02/18 05:22:22;;;;;;;3.80;3.70;;;13.10;99.90;;;;;;4995883;28;20207;-67
2023/02/18 05:24:48;;;;;;;4.43;4.23;;;13.00;99.90;;;;;;4995269;28;20189;-66
2023/02/18 05:27:13;;;;;;;3.87;3.70;;;13.10;99.90;;;;;;4977695;28;20637;-67
2023/02/18 05:29:39;;;;;;;3.80;3.70;;;12.90;99.90;;;;;;4977305;28;20181;-67
2023/02/18 05:32:05;;;;;;;3.80;3.60;;;13.00;99.90;;;;;;4995704;28;20263;-67
2023/02/18 05:34:30;;;;;;;3.70;3.60;;;13.00;99.90;;;;;;4994668;28;20185;-67
2023/02/18 05:36:56;;;;;;;3.60;3.50;;;12.80;99.90;;;;;;4993287;28;20957;-66
2023/02/18 05:39:22;;;;;;;3.90;3.63;;;12.80;99.90;;;;;;4995584;28;20170;-67
2023/02/18 05:41:47;;;;;;;3.50;3.40;;;12.80;99.90;;;;;;4977425;28;20204;-67
2023/02/18 05:44:29;;;;;;;3.60;3.50;;;12.80;99.90;;;;;;4995493;28;20193;-66
2023/02/18 05:46:55;;;;;;;4.00;3.70;;;12.80;99.90;;;;;;4994690;28;20792;-66
2023/02/18 05:49:21;;;;;;;3.90;3.70;;;12.80;99.90;;;;;;4995479;28;20414;-66
2023/02/18 05:51:47;;;;;;;3.20;3.10;;;12.80;99.90;;;;;;4993304;28;20437;-66
2023/02/18 05:54:12;;;;;;;2.73;2.73;;;12.80;99.90;;;;;;4995374;28;20186;-69
2023/02/18 05:56:38;;;;;;;3.23;3.10;;;12.80;99.90;;;;;;4992049;28;20187;-71
2023/02/18 05:59:04;;;;;;;3.10;3.00;;;12.80;99.90;;;;;;4995287;28;20476;-70
2023/02/18 06:01:30;;;;;;;3.70;3.50;;;12.70;99.90;;;;;;4995140;28;20203;-66
2023/02/18 06:03:55;;;;;;;3.10;3.00;;;12.70;99.90;;;;;;4994319;28;20225;-66
2023/02/18 06:06:21;;;;;;;3.47;3.27;;;12.70;99.90;;;;;;4994845;28;20173;-66
2023/02/18 06:08:47;;;;;;;2.83;2.73;;;12.70;99.90;;;;;;4977141;28;20585;-71
2023/02/18 06:11:12;;;;;;;2.90;2.80;;;12.70;99.90;;;;;;4981104;28;20209;-70
2023/02/18 06:13:38;;;;;;;3.57;3.33;;;12.70;99.90;;;;;;4955664;29;20178;-69
2023/02/18 06:16:04;;;;;;;3.20;3.10;;;12.60;99.90;;;;;;4961057;28;20225;-69
2023/02/18 06:18:29;;;;;;;3.33;3.20;;;12.70;99.90;;;;;;4963359;28;20200;-69
2023/02/18 06:20:55;;;;;;;3.70;3.40;;;12.70;99.90;;;;;;4964048;28;20414;-69
2023/02/18 06:23:21;;;;;;;3.37;3.20;;;12.70;99.90;;;;;;4963982;28;20212;-70
2023/02/18 06:25:50;;;;;;;3.60;3.50;;;12.70;99.90;;;;;;4955401;29;20180;-69
2023/02/18 06:28:16;;;;;;;4.10;3.80;;;12.70;99.90;;;;;;4938732;29;20186;-70
2023/02/18 06:30:44;;;;;;;4.50;4.10;;;12.70;99.90;;;;;;4955292;29;20917;-71
2023/02/18 06:33:09;;;;;;;4.07;3.87;;;12.60;99.90;;;;;;4958331;28;20765;-70
2023/02/18 06:35:35;;;;;;;3.80;3.70;;;12.50;99.90;;;;;;4961848;28;20409;-70
2023/02/18 06:38:01;;;;;;;5.80;5.40;;;12.50;99.90;;;;;;4967102;28;20243;-70
2023/02/18 06:40:27;;;;;;;5.80;5.40;;;12.50;99.90;;;;;;4974876;28;20190;-70
2023/02/18 06:42:52;;;;;;;5.17;4.87;;;12.50;99.90;;;;;;4974395;28;20690;-70
2023/02/18 06:45:18;;;;;;;5.37;4.97;;;12.60;99.90;;;;;;4974676;28;20182;-70
2023/02/18 06:47:44;;;;;;;6.10;5.70;;;12.60;99.90;;;;;;4973218;28;20617;-70
2023/02/18 06:50:10;;;;;;;4.93;4.63;;;12.60;99.90;;;;;;4974798;28;20429;-70
2023/02/18 06:52:36;;;;;;;5.20;4.90;;;12.60;99.90;;;;;;4973072;28;20188;-69
2023/02/18 06:55:06;;;;;;;4.83;4.53;;;12.60;99.90;;;;;;4973973;28;20526;-71
2023/02/18 06:57:31;;;;;;;5.13;4.83;;;12.50;99.90;;;;;;4973814;28;20429;-70
2023/02/18 06:59:57;;;;;;;6.20;5.70;;;12.60;99.90;;;;;;4974113;28;20412;-71
2023/02/18 07:02:23;;;;;;;4.30;4.10;;;12.60;99.90;;;;;;4974319;28;20215;-71
2023/02/18 07:04:51;;;;;;;5.30;4.90;;;12.50;99.90;;;;;;4973322;28;20174;-68
2023/02/18 07:07:16;;;;;;;4.73;4.27;;;12.60;99.90;;;;;;4973209;28;20568;-67
2023/02/18 07:09:42;;;;;;;3.87;3.67;;;12.60;99.90;;;;;;4972778;28;20430;-66
2023/02/18 07:12:08;;;;;;;21.27;14.20;;;12.70;99.90;;;;;;4984514;28;20272;-68
2023/02/18 07:14:36;;;;;;;75.73;48.13;;;12.70;99.90;;;;;;4993877;28;20186;-68
2023/02/18 07:17:01;;;;;;;13.83;12.40;;;12.60;99.90;;;;;;4991418;28;20194;-69
2023/02/18 07:19:27;;;;;;;4.60;4.20;;;12.70;99.90;;;;;;4993180;28;20446;-64
2023/02/18 07:21:56;;;;;;;4.10;3.90;;;12.50;99.90;;;;;;4992200;28;20213;-68
2023/02/18 07:24:23;;;;;;;4.93;4.63;;;12.50;99.90;;;;;;4993697;28;20201;-68
2023/02/18 07:26:48;;;;;;;5.20;4.90;;;12.50;99.90;;;;;;4992120;28;20400;-68
2023/02/18 07:29:14;;;;;;;5.67;5.27;;;12.60;99.90;;;;;;4992494;28;20191;-67
2023/02/18 07:31:40;;;;;;;5.03;4.73;;;12.60;99.90;;;;;;4993345;28;20177;-67
2023/02/18 07:34:06;;;;;;;5.97;5.50;;;12.50;99.90;;;;;;4991607;28;20593;-68
2023/02/18 07:36:31;;;;;;;5.73;5.33;;;12.50;99.90;;;;;;4992846;28;20484;-68
2023/02/18 07:38:57;;;;;;;5.33;5.03;;;12.50;99.90;;;;;;4992131;28;20608;-68
2023/02/18 07:41:24;;;;;;;5.13;4.83;;;12.50;99.90;;;;;;4992187;28;20266;-68
2023/02/18 07:43:49;;;;;;;4.90;4.60;;;12.40;99.90;;;;;;4989415;28;20202;-68
2023/02/18 07:46:16;;;;;;;4.90;4.60;;;12.50;99.90;;;;;;4980884;28;20435;-68
2023/02/18 07:48:42;;;;;;;5.40;5.10;;;12.40;99.90;;;;;;4973595;28;20199;-68
2023/02/18 07:51:09;;;;;;;4.20;4.00;;;12.50;99.90;;;;;;4974078;28;20467;-68
2023/02/18 07:53:36;;;;;;;4.93;4.73;;;12.50;99.90;;;;;;4973933;28;20443;-68
2023/02/18 07:56:03;;;;;;;4.30;4.10;;;12.50;99.90;;;;;;4973120;28;20425;-68
2023/02/18 07:58:35;;;;;;;4.50;4.30;;;12.40;99.90;;;;;;4973782;28;20437;-68
2023/02/18 08:01:06;;;;;;;4.57;4.17;;;12.40;99.90;;;;;;4973268;28;20503;-68
2023/02/18 08:03:32;;;;;;;4.40;4.20;;;12.40;99.90;;;;;;4973847;28;20475;-68
2023/02/18 08:05:58;;;;;;;3.83;3.70;;;12.40;99.90;;;;;;4973169;28;20436;-68
2023/02/18 08:08:26;;;;;;;4.23;4.03;;;12.40;99.90;;;;;;4974054;28;20413;-68
2023/02/18 08:10:54;;;;;;;3.90;3.70;;;12.40;99.90;;;;;;4974013;28;20238;-68
2023/02/18 08:13:19;;;;;;;3.90;3.70;;;12.40;99.90;;;;;;4993499;28;20421;-68
2023/02/18 08:15:45;;;;;;;4.30;4.10;;;12.40;99.90;;;;;;4992131;28;20779;-68
2023/02/18 08:18:16;;;;;;;4.93;4.70;;;12.40;99.90;;;;;;4992691;28;20633;-68
2023/02/18 08:20:42;;;;;;;4.40;4.20;;;12.40;99.90;;;;;;4996857;28;20160;-68
2023/02/18 08:23:09;;;;;;;4.40;4.20;;;12.40;99.90;;;;;;4996077;28;20465;-68
2023/02/18 08:25:35;;;;;;;3.60;3.40;;;12.40;99.90;;;;;;4996855;28;20173;-68
2023/02/18 08:28:01;;;;;;;3.93;3.63;;;12.40;99.90;;;;;;4996510;28;20419;-68
2023/02/18 08:30:27;;;;;;;3.83;3.63;;;12.40;99.90;;;;;;4996875;28;20523;-68
2023/02/18 08:32:53;;;;;;;3.33;3.13;;;12.40;99.90;;;;;;4995936;28;20426;-68
2023/02/18 08:35:19;;;;;;;3.90;3.70;;;12.50;99.90;;;;;;4996694;28;20572;-67
2023/02/18 08:37:45;;;;;;;3.70;3.50;;;12.50;99.90;;;;;;4996229;28;20414;-68
2023/02/18 08:40:12;;;;;;;3.80;3.60;;;12.40;99.90;;;;;;4996629;28;20402;-68
2023/02/18 08:42:39;;;;;;;3.93;3.73;;;12.30;99.90;;;;;;4996788;28;20216;-68
2023/02/18 08:45:05;;;;;;;3.90;3.70;;;12.30;99.90;;;;;;4995920;28;20446;-67
2023/02/18 08:47:31;;;;;;;3.90;3.70;;;12.30;99.90;;;;;;4996533;28;20399;-68
2023/02/18 08:49:57;;;;;;;3.60;3.40;;;12.30;99.90;;;;;;4975471;28;20433;-68
2023/02/18 08:52:23;;;;;;;2.90;2.77;;;12.30;99.90;;;;;;4992735;28;20715;-68
2023/02/18 08:54:49;;;;;;;3.40;3.30;;;12.30;99.90;;;;;;4995779;28;20261;-68
2023/02/18 08:57:15;;;;;;;4.07;3.33;;;12.20;99.90;;;;;;4996344;28;20283;-68
2023/02/18 08:59:40;;;;;;;3.20;3.10;;;12.20;99.90;;;;;;4995984;28;20234;-68
2023/02/18 09:02:06;;;;;;;3.57;3.43;;;12.20;99.90;;;;;;4995557;28;20208;-68
2023/02/18 09:04:32;;;;;;;3.47;3.37;;;12.10;99.90;;;;;;4996213;28;20420;-68
2023/02/18 09:06:58;;;;;;;3.03;2.93;;;12.10;99.90;;;;;;4995692;28;20202;-68
2023/02/18 09:09:23;;;;;;;3.20;3.10;;;12.10;99.90;;;;;;4995957;28;20267;-68
2023/02/18 09:11:50;;;;;;;3.70;3.40;;;12.10;99.90;;;;;;4995099;28;20315;-68
2023/02/18 09:14:15;;;;;;;3.53;3.33;;;12.10;99.90;;;;;;4995741;28;20242;-68
2023/02/18 09:16:42;;;;;;;4.10;3.60;;;12.10;99.90;;;;;;4996025;28;20514;-68
2023/02/18 09:19:08;;;;;;;4.43;3.53;;;12.10;99.90;;;;;;4995486;28;20178;-68
2023/02/18 09:21:34;;;;;;;3.30;3.10;;;12.20;99.90;;;;;;4995884;28;20410;-68
2023/02/18 09:23:59;;;;;;;3.47;3.27;;;12.20;99.90;;;;;;4995541;28;20424;-68
2023/02/18 09:26:26;;;;;;;4.50;3.50;;;12.20;99.90;;;;;;4996186;28;20195;-68
2023/02/18 09:28:53;;;;;;;3.77;3.57;;;12.20;99.90;;;;;;4995334;28;20176;-68
2023/02/18 09:31:22;;;;;;;3.87;3.60;;;12.20;99.90;;;;;;4994799;28;20441;-68
2023/02/18 09:33:54;;;;;;;3.87;3.67;;;12.10;99.90;;;;;;4995645;28;20403;-68
2023/02/18 09:36:19;;;;;;;4.70;3.93;;;12.10;99.90;;;;;;4995855;28;20473;-68
2023/02/18 09:38:45;;;;;;;4.30;3.90;;;12.10;99.90;;;;;;4995649;28;20886;-68
2023/02/18 09:41:28;;;;;;;5.70;3.87;;;12.10;99.90;;;;;;4995061;28;20608;-68
2023/02/18 09:43:59;;;;;;;5.23;3.93;;;12.10;99.90;;;;;;4994978;28;20450;-68
2023/02/18 09:46:36;;;;;;;3.90;3.60;;;12.10;99.90;;;;;;4995278;28;20921;-68
2023/02/18 09:49:06;;;;;;;4.10;3.73;;;12.00;99.90;;;;;;4994939;28;20407;-68
2023/02/18 09:51:32;;;;;;;4.00;3.70;;;12.10;99.90;;;;;;4995365;28;20493;-68
2023/02/18 09:53:58;;;;;;;3.80;3.60;;;12.10;99.90;;;;;;4994713;28;20842;-68
2023/02/18 09:56:34;;;;;;;4.80;3.97;;;12.10;99.90;;;;;;4995369;28;20737;-68
2023/02/18 09:59:04;;;;;;;5.10;4.07;;;12.10;99.90;;;;;;4976723;28;20573;-68
2023/02/18 10:01:35;;;;;;;4.47;4.07;;;12.10;99.90;;;;;;4977011;28;20957;-68
2023/02/18 10:04:11;;;;;;;7.87;3.93;;;12.10;99.90;;;;;;4993905;28;20419;-68
2023/02/18 10:06:37;;;;;;;4.70;4.30;;;12.00;99.90;;;;;;4994796;28;20908;-68
2023/02/18 10:09:28;;;;;;;7.93;4.80;;;12.00;99.90;;;;;;4994396;28;20415;-68
2023/02/18 10:12:04;;;;;;;4.47;4.17;;;12.00;99.90;;;;;;4994343;28;20477;-69
2023/02/18 10:14:30;;;;;;;4.53;4.10;;;12.00;99.90;;;;;;4994947;28;20414;-68
2023/02/18 10:16:57;;;;;;;8.07;5.10;;;12.00;99.90;;;;;;4994281;28;20423;-68
2023/02/18 10:19:39;;;;;;;6.93;4.40;;;12.00;99.90;;;;;;4994922;28;20407;-68
2023/02/18 10:22:08;;;;;;;7.13;5.13;;;12.00;99.90;;;;;;4994188;28;20458;-68
2023/02/18 10:24:37;;;;;;;6.90;4.10;;;12.00;99.90;;;;;;4994878;28;20477;-68
2023/02/18 10:27:06;;;;;;;5.47;4.90;;;12.00;99.90;;;;;;4994109;28;20415;-68
2023/02/18 10:29:32;;;;;;;5.40;4.90;;;12.00;99.90;;;;;;4994614;28;20414;-68
2023/02/18 10:32:11;;;;;;;6.07;5.57;;;12.00;99.90;;;;;;4976527;28;20419;-68
2023/02/18 10:35:10;;;;;;;5.70;5.13;;;12.00;99.90;;;;;;4994620;28;20403;-68
2023/02/18 10:37:55;;;;;;;5.97;5.33;;;12.10;99.90;;;;;;4890644;28;20924;-67
2023/02/18 10:40:43;;;;;;;10.50;5.87;;;12.10;99.90;;;;;;4977094;28;20754;-68
2023/02/18 10:43:39;;;;;;;6.60;6.00;;;12.00;99.90;;;;;;4993355;28;20462;-68
2023/02/18 10:46:15;;;;;;;6.33;5.73;;;11.90;99.90;;;;;;4993749;28;20442;-68
2023/02/18 10:48:49;;;;;;;8.80;6.50;;;12.00;99.90;;;;;;4994302;28;20403;-68
2023/02/18 10:51:25;;;;;;;9.30;6.27;;;12.00;99.90;;;;;;4976146;28;20460;-68
2023/02/18 10:53:52;;;;;;;7.20;6.67;;;12.00;99.90;;;;;;4992837;28;20391;-68
2023/02/18 10:56:35;;;;;;;6.80;5.67;;;12.10;99.90;;;;;;4976893;28;20415;-68
2023/02/18 10:59:11;;;;;;;6.50;5.80;;;12.00;99.90;;;;;;4976007;28;20405;-68
2023/02/18 11:01:37;;;;;;;6.93;6.00;;;12.00;99.90;;;;;;4976620;28;20415;-68
2023/02/18 11:04:16;;;;;;;6.80;6.03;;;12.00;99.90;;;;;;4993090;28;20778;-68
2023/02/18 11:06:48;;;;;;;7.17;5.90;;;12.00;99.90;;;;;;4994084;28;20446;-68
2023/02/18 11:09:32;;;;;;;8.63;5.40;;;12.00;99.90;;;;;;4993296;28;20881;-68
2023/02/18 11:12:02;;;;;;;6.83;5.73;;;12.00;99.90;;;;;;4993204;28;20463;-68
2023/02/18 11:14:43;;;;;;;6.87;6.20;;;12.00;99.90;;;;;;4993751;28;20461;-68
2023/02/18 11:17:25;;;;;;;6.23;5.73;;;12.00;99.90;;;;;;4993247;28;20412;-68
2023/02/18 11:19:53;;;;;;;5.57;5.17;;;12.10;99.90;;;;;;4993623;28;20471;-68
2023/02/18 11:22:29;;;;;;;6.60;4.97;;;12.10;99.90;;;;;;4992990;28;20468;-68
2023/02/18 11:24:58;;;;;;;6.77;5.90;;;12.00;99.90;;;;;;4993135;28;20395;-68
2023/02/18 11:27:26;;;;;;;6.00;5.60;;;12.00;99.90;;;;;;4993763;28;20871;-68
2023/02/18 11:30:00;;;;;;;5.97;5.53;;;12.00;99.90;;;;;;4993607;28;20474;-68
2023/02/18 11:32:32;;;;;;;6.73;6.13;;;12.10;99.90;;;;;;4993709;28;20454;-68
2023/02/18 11:34:58;;;;;;;6.30;5.77;;;12.10;99.90;;;;;;4992699;28;20389;-68
2023/02/18 11:37:24;;;;;;;6.20;5.80;;;12.10;99.90;;;;;;4993447;28;20495;-68
2023/02/18 11:39:53;;;;;;;6.17;5.77;;;12.10;99.90;;;;;;4975956;28;20205;-68
2023/02/18 11:42:23;;;;;;;6.00;5.60;;;12.00;99.90;;;;;;4992343;28;20462;-68
2023/02/18 11:44:53;;;;;;;5.33;4.93;;;12.00;99.90;;;;;;4976081;28;20411;-68
2023/02/18 11:47:23;;;;;;;5.03;4.83;;;12.00;99.90;;;;;;4975357;28;20423;-68
2023/02/18 11:50:07;;;;;;;6.27;5.80;;;12.00;99.90;;;;;;4993273;28;20481;-68
2023/02/18 11:52:36;;;;;;;4.73;4.43;;;12.00;99.90;;;;;;4992957;28;20914;-68
2023/02/18 11:55:18;;;;;;;4.97;4.57;;;11.90;99.90;;;;;;4992166;28;20498;-68
2023/02/18 11:58:04;;;;;;;4.50;4.30;;;12.00;99.90;;;;;;4975978;28;20413;-68
2023/02/18 12:00:46;;;;;;;4.40;4.20;;;12.00;99.90;;;;;;4993343;28;20479;-68
2023/02/18 12:03:40;;;;;;;4.87;4.57;;;12.00;99.90;;;;;;4975209;28;20454;-68
2023/02/18 12:06:27;;;;;;;5.07;4.67;;;12.00;99.90;;;;;;4986690;28;20411;-68
2023/02/18 12:09:02;;;;;;;4.10;4.00;;;12.00;99.90;;;;;;4993553;28;20395;-68
2023/02/18 12:11:37;;;;;;;4.30;4.00;;;12.00;99.90;;;;;;4992915;28;20558;-68
2023/02/18 12:14:08;;;;;;;3.87;3.77;;;12.00;99.90;;;;;;4975171;28;20418;-69
2023/02/18 12:17:04;;;;;;;4.00;3.80;;;12.00;99.90;;;;;;4975869;28;20985;-68
2023/02/18 12:19:41;;;;;;;3.97;3.77;;;12.00;99.90;;;;;;4992932;28;20499;-70
2023/02/18 12:22:38;;;;;;;3.80;3.57;;;12.00;99.90;;;;;;4992367;28;20446;-68
2023/02/18 12:25:29;;;;;;;3.60;3.50;;;12.00;99.90;;;;;;4992520;28;20404;-69
2023/02/18 12:28:20;;;;;;;4.03;3.83;;;12.00;99.90;;;;;;4975983;28;20393;-69
2023/02/18 12:30:57;;;;;;;3.97;3.83;;;12.00;99.90;;;;;;4931751;28;20431;-68
2023/02/18 12:33:34;;;;;;;4.07;3.67;;;11.90;99.90;;;;;;4992325;28;20408;-69
2023/02/18 12:36:08;;;;;;;3.33;3.23;;;11.90;99.90;;;;;;4992415;28;20793;-68
2023/02/18 12:38:54;;;;;;;3.60;3.50;;;12.00;99.90;;;;;;4993140;28;20418;-69
2023/02/18 12:41:44;;;;;;;3.77;3.67;;;11.90;99.90;;;;;;4992599;28;20972;-69
2023/02/18 12:44:20;;;;;;;3.63;3.43;;;12.00;99.90;;;;;;4992631;28;20411;-69
2023/02/18 12:47:33;;;;;;;4.07;3.87;;;11.90;99.90;;;;;;4992942;28;20539;-69
2023/02/18 12:50:23;;;;;;;3.90;3.80;;;12.00;99.90;;;;;;4887696;28;20426;-69
2023/02/18 12:53:15;;;;;;;4.20;4.00;;;11.90;99.90;;;;;;4992672;28;20400;-69
2023/02/18 12:55:47;;;;;;;3.90;3.80;;;12.00;99.90;;;;;;4973394;28;20493;-69
2023/02/18 12:58:36;;;;;;;4.53;4.27;;;12.00;99.90;;;;;;4991911;28;20431;-69
2023/02/18 13:01:08;;;;;;;4.00;3.90;;;12.00;99.90;;;;;;4992139;28;20453;-69